Latest Weather Observations for Tarcoola

IDS60801

Issued at 9:31 am CDT Wednesday 25 January 2017 (issued every 30 minutes, with the page automatically refreshed every 10 minutes)

About weather observations | Map of weather stations | Latest weather observations for SA | Other Formats
Station Details ID: 016098 Name: TARCOOLA AERO Lat: -30.71 Lon: 134.58 Height: 123.0 m
Data from the previous 72 hours. | See also: Recent months at Tarcoola
Date/Time
CDT
Temp
°C
App
Temp
°C
Dew
Point
°C
Rel
Hum
%
Delta-T
°C
Wind Press
QNH
hPa
Press
MSL
hPa
Rain since
9am
mm
Dir  Spd
km/h
Gust
km/h
Spd
kts
Gust
kts
25/09:00am 20.2 17.9 11.7 58 4.7 SSE 15 20 8 11 1020.3 1019.6 0.0
25/08:30am 18.8 17.7 11.9 64 3.8 S 9 13 5 7 1020.5 1019.7 0.0
25/08:00am 17.7 15.8 11.7 68 3.3 S 13 15 7 8 1020.1 1019.4 0.0
25/07:30am 16.2 14.9 11.4 73 2.6 SSW 9 11 5 6 1019.9 1019.2 0.0
25/07:00am 15.2 13.8 11.0 76 2.2 SSW 9 11 5 6 1019.1 1018.4 0.0
25/06:30am 14.9 13.5 10.9 77 2.1 SSW 9 13 5 7 1018.8 1018.1 0.0
25/06:00am 15.0 13.6 11.0 77 2.1 SSW 9 11 5 6 1018.4 1017.7 0.0
25/05:30am 15.3 14.0 11.1 76 2.2 SSW 9 11 5 6 1018.3 1017.6 0.0
25/05:00am 15.5 13.8 11.3 76 2.3 SSW 11 13 6 7 1018.2 1017.5 0.0
25/04:30am 15.7 14.1 11.5 76 2.3 SW 11 11 6 6 1018.2 1017.5 0.0
25/04:00am 16.2 14.6 11.6 74 2.5 SW 11 11 6 6 1018.2 1017.5 0.0
25/03:30am 16.7 15.4 11.4 71 2.9 SW 9 11 5 6 1018.2 1017.5 0.0
25/03:00am 17.7 16.1 11.5 67 3.4 SSW 11 13 6 7 1018.3 1017.6 0.0
25/02:30am 18.6 17.0 11.4 63 3.9 SSW 11 15 6 8 1018.3 1017.6 0.0
25/02:00am 19.5 17.5 11.5 60 4.4 S 13 17 7 9 1018.1 1017.4 0.0
25/01:30am 20.2 17.4 11.4 57 4.9 S 17 20 9 11 1018.0 1017.3 0.0
25/01:00am 20.7 18.0 11.6 56 5.1 S 17 20 9 11 1018.1 1017.4 0.0
25/12:30am 20.6 18.7 11.8 57 4.9 SSW 13 15 7 8 1018.2 1017.5 0.0
25/12:00am 21.2 18.9 11.8 55 5.3 SSW 15 19 8 10 1018.3 1017.6 0.0
 
Date/Time
CDT
Temp
°C
App
Temp
°C
Dew
Point
°C
Rel
Hum
%
Delta-T
°C
Wind Press
QNH
hPa
Press
MSL
hPa
Rain since
9am
mm
Dir  Spd
km/h
Gust
km/h
Spd
kts
Gust
kts
24/11:30pm 21.9 19.6 11.6 52 5.8 SW 15 20 8 11 1018.3 1017.6 0.0
24/11:00pm 21.6 19.2 10.1 48 6.3 SW 13 17 7 9 1018.1 1017.4 0.0
24/10:30pm 23.4 21.6 9.4 41 7.6 SSE 9 9 5 5 1017.9 1017.2 0.0
24/10:00pm 24.4 21.9 8.4 36 8.6 SE 11 15 6 8 1017.7 1017.0 0.0
24/09:30pm 25.0 22.2 8.5 35 8.9 SE 13 19 7 10 1017.5 1016.8 0.0
24/09:00pm 25.3 22.4 8.3 34 9.1 SE 13 17 7 9 1017.3 1016.6 0.0
24/08:30pm 26.0 21.9 8.0 32 9.7 SSE 19 26 10 14 1017.1 1016.4 0.0
24/08:00pm 26.5 22.2 8.0 31 10.0 SSE 20 30 11 16 1016.7 1015.9 0.0
24/07:30pm 26.8 22.0 8.7 32 9.9 SSE 24 32 13 17 1016.3 1015.5 0.0
24/07:00pm 26.9 22.5 8.8 32 9.9 SSE 22 32 12 17 1016.0 1015.2 0.0
24/06:30pm 26.0 21.2 8.9 34 9.3 S 24 33 13 18 1015.7 1014.9 0.0
24/06:00pm 26.6 22.0 9.5 34 9.5 S 24 32 13 17 1015.6 1014.8 0.0
24/05:30pm 27.1 22.2 9.9 34 9.6 S 26 37 14 20 1015.6 1014.8 0.0
24/05:00pm 26.9 21.4 9.3 33 9.7 S 28 39 15 21 1015.6 1014.8 0.0
24/04:30pm 28.3 23.2 10.5 33 10.1 S 28 35 15 19 1015.6 1014.8 0.0
24/04:00pm 27.8 22.4 9.6 32 10.2 SSW 28 43 15 23 1015.6 1014.8 0.0
24/03:30pm 27.1 22.5 9.5 33 9.8 SSW 24 32 13 17 1015.8 1015.0 0.0
24/03:00pm 28.0 23.7 9.3 31 10.4 S 22 30 12 16 1016.2 1015.4 0.0
24/02:30pm 28.4 24.7 10.1 32 10.3 SSE 20 33 11 18 1016.5 1015.7 0.0
24/02:00pm 27.3 23.4 9.6 33 9.9 SE 20 33 11 18 1016.8 1016.0 0.0
24/01:30pm 26.7 22.4 10.8 37 9.0 S 24 35 13 19 1016.7 1015.9 0.0
24/01:00pm 25.4 22.6 12.6 45 7.4 SSE 19 33 10 18 1016.9 1016.2 0.0
24/12:30pm 25.7 22.6 12.2 43 7.8 SSE 20 32 11 17 1017.0 1016.3 0.0
24/12:00pm 24.6 21.9 13.5 50 6.5 S 20 33 11 18 1017.3 1016.6 0.0
24/11:30am 23.6 20.0 12.9 51 6.2 S 24 37 13 20 1017.2 1016.5 0.0
24/11:00am 22.9 18.9 13.1 54 5.7 S 26 37 14 20 1017.4 1016.7 0.0
24/10:30am 23.2 19.9 13.9 56 5.5 SSW 24 35 13 19 1017.6 1016.9 0.0
24/10:00am 21.9 19.1 13.3 58 5.0 SSE 20 32 11 17 1017.7 1017.0 0.0
24/09:30am 20.7 17.3 13.6 64 4.1 SSE 24 33 13 18 1017.4 1016.7 0.0
24/09:00am 20.4 17.1 14.1 67 3.7 S 24 37 13 20 1017.0 1016.3 0.0
24/08:30am 20.2 16.5 13.9 67 3.6 SSE 26 35 14 19 1016.6 1015.8 0.0
24/08:00am 20.1 16.4 14.0 68 3.5 SSE 26 35 14 19 1016.2 1015.4 0.0
24/07:30am 19.9 15.9 14.0 69 3.4 S 28 39 15 21 1015.6 1014.8 0.0
24/07:00am 19.9 15.9 14.0 69 3.4 S 28 43 15 23 1015.2 1014.4 0.0
24/06:30am 19.8 15.7 13.7 68 3.5 S 28 41 15 22 1014.9 1014.1 0.0
24/06:00am 20.2 16.7 14.6 70 3.3 S 26 35 14 19 1014.5 1013.7 0.0
24/05:30am 20.2 16.7 14.6 70 3.3 SSE 26 37 14 20 1014.2 1013.4 0.0
24/05:00am 20.3 17.4 15.1 72 3.1 S 24 32 13 17 1014.1 1013.3 0.0
24/04:30am 20.1 16.0 14.9 72 3.1 S 30 39 16 21 1013.7 1012.9 0.0
24/04:00am 20.2 16.5 15.0 72 3.1 SSW 28 39 15 21 1013.1 1012.3 0.0
24/03:30am 20.4 16.3 15.0 71 3.2 S 30 43 16 23 1012.4 1011.6 0.0
24/03:05am 20.6 16.7 15.4 72 3.1 SSW 30 48 16 26 1012.2 1011.4 0.0
24/03:00am 20.6 16.1 15.4 72 3.1 SSW 33 50 18 27 1012.1 1011.3 0.0
24/02:30am 20.9 17.3 16.3 75 2.8 SSW 30 43 16 23 1012.5 1011.7 0.0
24/02:00am 20.8 16.8 16.8 78 2.4 SSW 33 46 18 25 1012.9 1012.1 0.0
24/01:30am 21.3 17.5 17.3 78 2.5 SSW 33 46 18 25 1012.6 1011.8 0.0
24/01:00am 21.8 18.5 18.0 79 2.4 SSW 32 44 17 24 1012.6 1011.8 0.0
24/12:30am 22.6 18.9 18.4 77 2.6 SSW 35 46 19 25 1012.5 1011.7 0.0
24/12:00am 23.1 20.6 18.8 77 2.7 SW 30 39 16 21 1012.2 1011.4 0.0
 
Date/Time
CDT
Temp
°C
App
Temp
°C
Dew
Point
°C
Rel
Hum
%
Delta-T
°C
Wind Press
QNH
hPa
Press
MSL
hPa
Rain since
9am
mm
Dir  Spd
km/h
Gust
km/h
Spd
kts
Gust
kts
23/11:30pm 23.7 21.7 19.2 76 2.9 SSW 28 37 15 20 1012.0 1011.2 0.0
23/11:00pm 23.8 21.9 19.3 76 2.9 SSW 28 37 15 20 1011.5 1010.8 0.0
23/10:30pm 24.2 22.8 19.7 76 2.9 SSW 26 41 14 22 1011.5 1010.8 0.0
23/10:00pm 24.6 22.6 19.9 75 3.1 SSW 30 39 16 21 1011.1 1010.4 0.0
23/09:30pm 25.6 24.5 21.1 76 3.0 SSW 28 39 15 21 1010.3 1009.6 0.0
23/09:00pm 27.5 25.9 21.5 70 4.0 SW 32 39 17 21 1009.7 1009.0 0.0
23/08:30pm 29.3 28.8 21.5 63 5.3 SSW 26 43 14 23 1008.4 1007.6 0.0
23/08:00pm 30.4 30.5 21.8 60 5.8 SSW 24 37 13 20 1008.0 1007.2 0.0
23/07:30pm 30.8 30.4 21.6 58 6.2 SSW 26 39 14 21 1007.0 1006.2 0.0
23/07:00pm 31.4 30.1 21.3 55 6.8 S 30 41 16 22 1006.4 1005.6 0.0
23/06:30pm 31.7 31.4 21.8 55 6.7 S 26 37 14 20 1006.1 1005.3 0.0
23/06:00pm 32.7 30.5 22.2 54 7.2 SSW 37 52 20 28 1005.0 1004.2 0.0
23/05:30pm 33.8 31.4 22.6 52 7.8 SSW 39 50 21 27 1004.0 1003.2 0.0
23/05:11pm 34.5 31.5 22.2 48 8.5 SW 41 61 22 33 1003.7 1002.9 0.0
23/05:00pm 34.6 31.3 22.3 48 8.5 SW 43 59 23 32 1003.9 1003.1 0.0
23/04:37pm 35.5 31.3 21.7 44 9.5 SW 46 65 25 35 1003.2 1002.5 0.0
23/04:30pm 36.9 33.2 21.9 42 10.4 SW 44 59 24 32 1003.2 1002.5 0.0
23/04:07pm 36.7 33.1 20.9 39 10.7 WSW 41 61 22 33 1003.1 1002.4 0.0
23/04:02pm 37.5 34.3 19.4 34 12.1 W 35 54 19 29 1003.1 1002.4 0.0
23/04:00pm 38.8 35.8 19.1 31 13.2 W 33 46 18 25 1003.0 1002.3 0.0
23/03:36pm 39.2 35.9 18.4 29 13.8 W 33 50 18 27 1002.8 1002.1 0.0
23/03:30pm 39.3 36.1 19.5 31 13.4 W 35 48 19 26 1002.9 1002.2 0.0
23/03:00pm 39.6 38.0 19.3 30 13.7 W 26 37 14 20 1003.2 1002.5 0.0
23/02:39pm 39.1 36.6 18.9 31 13.5 WNW 30 48 16 26 1003.7 1002.9 0.0
23/02:30pm 39.2 37.4 19.5 32 13.3 W 28 43 15 23 1003.8 1003.0 0.0
23/02:00pm 37.7 36.7 19.6 34 12.1 NW 24 33 13 18 1004.3 1003.5 0.0
23/01:30pm 37.6 37.7 20.4 36 11.7 NW 20 30 11 16 1004.9 1004.1 0.0
23/01:00pm 37.8 38.6 21.4 38 11.3 NW 19 32 10 17 1005.3 1004.5 0.0
23/12:30pm 37.0 36.8 21.2 40 10.8 NNW 24 35 13 19 1005.5 1004.7 0.0
23/12:00pm 35.1 35.2 19.9 41 10.2 NW 19 33 10 18 1005.8 1005.0 0.0
23/11:30am 35.3 37.5 21.2 44 9.6 WNW 11 20 6 11 1006.0 1005.2 0.0
23/11:00am 34.3 35.5 19.1 40 10.0 WNW 11 17 6 9 1006.0 1005.2 0.0
23/10:30am 33.3 35.0 20.1 45 8.8 N 11 17 6 9 1006.1 1005.3 0.0
23/10:00am 32.7 34.5 21.2 50 7.8 N 13 17 7 9 1006.0 1005.2 0.0
23/09:30am 31.3 36.0 22.6 60 6.0 WNW 2 7 1 4 1006.1 1005.3 0.0
23/09:00am 30.8 34.0 22.4 61 5.8 WSW 9 13 5 7 1005.9 1005.1 0.0
23/08:30am 30.7 34.5 22.8 62 5.4 SW 7 11 4 6 1005.5 1004.7 0.0
23/08:00am 28.9 32.4 22.9 70 4.1 SSW 9 11 5 6 1005.2 1004.4 0.0
23/07:30am 28.4 31.6 23.1 73 3.6 SW 11 13 6 7 1004.9 1004.1 0.0
23/07:00am 27.8 31.9 23.0 75 3.3 W 6 7 3 4 1004.4 1003.6 0.0
23/06:30am 28.4 32.1 22.6 71 4.0 N 7 9 4 5 1003.9 1003.1 0.0
23/06:00am 29.0 32.1 22.2 66 4.6 NNE 9 9 5 5 1003.6 1002.8 0.0
23/05:30am 29.3 32.9 22.3 66 4.8 N 7 7 4 4 1003.4 1002.7 0.0
23/05:00am 29.6 33.1 21.8 63 5.3 N 6 9 3 5 1003.6 1002.8 0.0
23/04:30am 30.2 32.6 21.6 60 5.8 N 11 13 6 7 1003.6 1002.8 0.0
23/04:00am 30.4 33.3 21.8 60 5.8 N 9 11 5 6 1003.7 1002.9 0.0
23/03:30am 30.7 33.2 21.8 59 6.1 NNE 11 15 6 8 1003.7 1002.9 0.0
23/03:00am 31.2 33.1 21.4 56 6.6 N 13 17 7 9 1003.7 1002.9 0.0
23/02:30am 31.3 33.5 20.3 52 7.3 N 9 11 5 6 1004.1 1003.3 0.0
23/02:00am 31.8 33.8 19.1 47 8.3 NNW 7 7 4 4 1004.6 1003.8 0.0
23/01:30am 32.6 33.9 18.4 43 9.3 ENE 9 11 5 6 1005.0 1004.2 0.0
23/01:00am 32.4 34.5 19.3 46 8.6 ESE 7 9 4 5 1005.2 1004.4 0.0
23/12:30am 33.0 34.2 19.1 43 9.2 ESE 11 13 6 7 1005.5 1004.7 0.0
23/12:00am 32.5 34.0 19.7 46 8.5 SE 11 13 6 7 1005.6 1004.8 0.0
 
Date/Time
CDT
Temp
°C
App
Temp
°C
Dew
Point
°C
Rel
Hum
%
Delta-T
°C
Wind Press
QNH
hPa
Press
MSL
hPa
Rain since
9am
mm
Dir  Spd
km/h
Gust
km/h
Spd
kts
Gust
kts
22/11:30pm 32.0 35.6 22.4 57 6.6 SE 7 9 4 5 1005.8 1005.0 0.0
22/11:00pm 32.2 36.6 21.4 53 7.3 CALM 0 4 0 2 1005.9 1005.1 0.0
22/10:30pm 32.4 36.7 21.9 54 7.2 SE 2 9 1 5 1006.0 1005.2 0.0
22/10:00pm 32.7 36.9 20.9 49 7.9 CALM 0 0 0 0 1005.8 1005.0 0.0
22/09:30pm 33.1 36.7 21.3 50 8.0 SE 4 6 2 3 1005.3 1004.5 0.0
22/09:00pm 34.4 36.2 18.8 39 10.3 SE 7 9 4 5 1005.4 1004.6 0.0
22/08:30pm 35.2 38.1 18.3 36 11.1 CALM 0 0 0 0 1005.3 1004.5 0.0
22/08:00pm 37.1 39.7 17.6 31 12.7 CALM 0 0 0 0 1005.2 1004.4 0.0
22/07:30pm 37.0 38.1 17.1 31 12.9 SW 7 15 4 8 1004.9 1004.1 0.0
22/07:00pm 37.6 38.5 17.6 31 13.1 WNW 9 15 5 8 1004.7 1003.9 0.0
22/06:30pm 37.2 38.0 17.2 30 13.0 SW 9 13 5 7 1004.3 1003.5 0.0
22/06:00pm 37.3 37.3 17.3 30 13.0 SW 13 19 7 10 1004.8 1004.0 0.0
22/05:30pm 36.3 34.5 17.9 33 12.1 WSW 24 30 13 16 1005.4 1004.6 0.0
22/05:00pm 36.7 36.6 17.8 32 12.4 WSW 15 20 8 11 1006.0 1005.2 0.0
22/04:30pm 36.6 36.2 16.2 29 13.1 NW 13 20 7 11 1006.4 1005.6 0.0
22/04:00pm 36.7 35.0 16.3 30 13.1 NW 20 33 11 18 1006.6 1005.8 0.0
22/03:30pm 37.1 36.3 16.1 29 13.5 NNW 15 30 8 16 1006.9 1006.1 0.0
22/03:00pm 36.8 35.9 16.9 31 12.9 NNW 17 32 9 17 1007.3 1006.5 0.0
22/02:30pm 37.1 36.3 16.1 29 13.5 NNW 15 26 8 14 1007.6 1006.8 0.0
22/02:00pm 35.8 34.8 15.5 29 12.8 N 15 30 8 16 1008.0 1007.2 0.0
22/01:30pm 35.5 33.6 15.3 30 12.7 NNW 19 30 10 16 1008.3 1007.5 0.0
22/01:00pm 35.7 34.1 14.9 29 13.0 NNW 17 39 9 21 1008.8 1008.0 0.0
22/12:30pm 35.9 33.7 14.5 27 13.3 N 19 30 10 16 1009.2 1008.4 0.0
22/12:00pm 34.9 32.6 14.2 28 12.8 NNE 19 30 10 16 1009.4 1008.6 0.0
22/11:30am 34.4 32.0 14.3 30 12.4 NNE 20 30 11 16 1009.5 1008.7 0.0
22/11:00am 33.3 30.4 13.9 31 11.9 NNE 22 35 12 19 1009.7 1009.0 0.0
22/10:30am 32.0 29.0 13.7 33 11.1 NNE 22 33 12 18 1010.1 1009.4 0.0
22/10:00am 30.9 28.0 14.1 36 10.2 NNE 22 32 12 17 1010.5 1009.8 0.0

Other Formats:

Comma delimited format used in spreadsheet applications
http://www.bom.gov.au/fwo/IDS60801/IDS60801.94655.axf

JavaScript Object Notation format (JSON) in row-major order
http://www.bom.gov.au/fwo/IDS60801/IDS60801.94655.json